Agonistis — SVBC3 — position and weather

sailwx.info

Track history (hours):
 
Tides and Currents Weather Stations Pressure Air Temp Water Temp Dewpoint Dewpoint Depression Visibility Wind Speed Wind Dir Waves Ship Positions

Agonistis

Last reported at 2016-Jan-07 15:19 UTC. Time now 2016-Feb-14 19:03 UTC.
Position N 01°60' E 102°13'.
Warning: this ship's position is 38 days out of date.

Length 196 m; draft 11.9 m.

Type: Cargo ship. MMSI: 241048000.

Date/timePositionNaut miles runAvg speedWind from/ knotsBaromVisibWave heightAir tempDewpointWater temp
2016-Jan-07 15:19N 01°60' E 102°13'1012.9
2016-Jan-07 14:31N 01°55' E 102°21'1212.2
2016-Jan-07 13:33N 01°49' E 102°32'7712.1
2016-Jan-07 07:11N 01°11' E 103°39'6 9.3
2016-Jan-07 06:31N 01°09' E 103°45'9 8.8
2016-Jan-07 05:33N 01°13' E 103°53'7 7.0
2016-Jan-07 04:33N 01°16' E 103°59'1 0.9
2016-Jan-07 03:19N 01°17' E 103°59'0 0.2
2016-Jan-07 02:25N 01°17' E 103°59'0 0.1
2016-Jan-07 01:28N 01°17' E 103°59'0 0.0
2016-Jan-06 23:25N 01°17' E 103°59'0 0.0
2016-Jan-06 22:31N 01°17' E 103°59'0 0.0
2016-Jan-06 21:19N 01°17' E 103°59'0 0.0
2016-Jan-06 20:31N 01°17' E 103°59'0 0.0
2016-Jan-06 19:22N 01°17' E 103°59'0 0.0
2016-Jan-06 18:19N 01°17' E 103°59'0 0.0
2016-Jan-06 17:31N 01°17' E 103°59'0 0.0
2016-Jan-06 16:07N 01°17' E 103°59'0 0.0
2016-Jan-06 14:31N 01°17' E 103°59'0 0.0
2016-Jan-06 13:13N 01°17' E 103°59'0 0.0
2016-Jan-06 12:04N 01°17' E 103°59'0 0.0
2016-Jan-06 09:31N 01°17' E 103°59'0 0.1
2016-Jan-06 07:31N 01°17' E 103°60'0 0.0
2016-Jan-06 06:25N 01°17' E 103°60'0 0.0
2016-Jan-06 05:32N 01°17' E 103°60'1 1.3
2016-Jan-06 04:33N 01°16' E 103°59'1 0.7
2016-Jan-06 03:33N 01°16' E 103°60'4 4.1
2016-Jan-06 02:29N 01°16' E 104°04'  
Track history (hours):
 
Tides and Currents Weather Stations Pressure Air Temp Water Temp Dewpoint Dewpoint Depression Visibility Wind Speed Wind Dir Waves Ship Positions

Agonistis

Last reported at 2016-Jan-07 15:19 UTC. Time now 2016-Feb-14 19:03 UTC.
Position N 01°60' E 102°13'.
Warning: this ship's position is 38 days out of date.

Length 196 m; draft 11.9 m.

Type: Cargo ship. MMSI: 241048000.

Date/timePositionNaut miles runAvg speedWind from/ knotsBaromVisibWave heightAir tempDewpointWater temp
2016-Jan-07 15:19N 01°60' E 102°13'1012.9
2016-Jan-07 14:31N 01°55' E 102°21'1212.2
2016-Jan-07 13:33N 01°49' E 102°32'7712.1
2016-Jan-07 07:11N 01°11' E 103°39'6 9.3
2016-Jan-07 06:31N 01°09' E 103°45'9 8.8
2016-Jan-07 05:33N 01°13' E 103°53'7 7.0
2016-Jan-07 04:33N 01°16' E 103°59'1 0.9
2016-Jan-07 03:19N 01°17' E 103°59'0 0.2
2016-Jan-07 02:25N 01°17' E 103°59'0 0.1
2016-Jan-07 01:28N 01°17' E 103°59'0 0.0
2016-Jan-06 23:25N 01°17' E 103°59'0 0.0
2016-Jan-06 22:31N 01°17' E 103°59'0 0.0
2016-Jan-06 21:19N 01°17' E 103°59'0 0.0
2016-Jan-06 20:31N 01°17' E 103°59'0 0.0
2016-Jan-06 19:22N 01°17' E 103°59'0 0.0
2016-Jan-06 18:19N 01°17' E 103°59'0 0.0
2016-Jan-06 17:31N 01°17' E 103°59'0 0.0
2016-Jan-06 16:07N 01°17' E 103°59'0 0.0
2016-Jan-06 14:31N 01°17' E 103°59'0 0.0
2016-Jan-06 13:13N 01°17' E 103°59'0 0.0
2016-Jan-06 12:04N 01°17' E 103°59'0 0.0
2016-Jan-06 09:31N 01°17' E 103°59'0 0.1
2016-Jan-06 07:31N 01°17' E 103°60'0 0.0
2016-Jan-06 06:25N 01°17' E 103°60'0 0.0
2016-Jan-06 05:32N 01°17' E 103°60'1 1.3
2016-Jan-06 04:33N 01°16' E 103°59'1 0.7
2016-Jan-06 03:33N 01°16' E 103°60'4 4.1
2016-Jan-06 02:29N 01°16' E 104°04'  

Dump ship's entire track history